UKV5035 RJOA-RJFU

Flight info

Callsign UKV5035
Flight time 0h 42m
Altitude 28000
Route MARCO Y28 ACTIE OHGIE
Aircraft A321/M-SDE3FGHIRWY/LB1

Departure

Time 2026-05-07 16:16
Airport Hiroshima Airport (RJOA)

Arrival

Time 2026-05-07 16:58
Airport Nagasaki Airport (RJFU)
Time Latitude Longitude Altitude Speed Heading
2026-05-07 16:08 34.43891 132.92032 1080 ft 0 kts 359°
2026-05-07 16:09 34.43885 132.92032 1080 ft 4 kts 360°
2026-05-07 16:09 34.43858 132.92031 1082 ft 4 kts
2026-05-07 16:10 34.43846 132.92031 1082 ft 4 kts
2026-05-07 16:10 34.43819 132.92028 1084 ft 4 kts 13°
2026-05-07 16:10 34.43785 132.92013 1085 ft 4 kts 32°
2026-05-07 16:10 34.43775 132.92005 1084 ft 1 kts 38°
2026-05-07 16:11 34.43772 132.92002 1084 ft 2 kts 38°
2026-05-07 16:12 34.43772 132.92004 1087 ft 1 kts 53°
2026-05-07 16:13 34.43772 132.92065 1088 ft 14 kts 90°
2026-05-07 16:13 34.43771 132.92203 1091 ft 21 kts 90°
2026-05-07 16:13 34.43768 132.92419 1090 ft 30 kts 89°
2026-05-07 16:13 34.43769 132.92672 1094 ft 29 kts 89°
2026-05-07 16:14 34.43771 132.92924 1090 ft 31 kts 89°
2026-05-07 16:14 34.43772 132.93178 1090 ft 31 kts 90°
2026-05-07 16:14 34.43772 132.93450 1084 ft 33 kts 91°
2026-05-07 16:14 34.43684 132.93546 1087 ft 17 kts 175°
2026-05-07 16:15 34.43607 132.93504 1090 ft 9 kts 256°
2026-05-07 16:15 34.43601 132.93213 1088 ft 71 kts 270°
2026-05-07 16:15 34.43600 132.92334 1091 ft 135 kts 270°
2026-05-07 16:15 34.43592 132.91051 1432 ft 153 kts 269°
2026-05-07 16:16 34.43539 132.89803 2242 ft 148 kts 262°
2026-05-07 16:16 34.43422 132.88563 2931 ft 150 kts 260°
2026-05-07 16:16 34.43287 132.87246 3297 ft 168 kts 260°
2026-05-07 16:16 34.43131 132.85732 3540 ft 193 kts 260°
2026-05-07 16:17 34.42957 132.84014 3888 ft 217 kts 259°
2026-05-07 16:17 34.42766 132.82128 4304 ft 237 kts 258°
2026-05-07 16:17 34.42245 132.80225 4943 ft 243 kts 242°
2026-05-07 16:17 34.41325 132.78481 5686 ft 247 kts 233°
2026-05-07 16:18 34.40283 132.76809 6442 ft 251 kts 232°
2026-05-07 16:18 34.39206 132.75124 7188 ft 254 kts 232°
2026-05-07 16:18 34.38131 132.73407 7932 ft 257 kts 234°
2026-05-07 16:18 34.37063 132.71650 8669 ft 260 kts 235°
2026-05-07 16:19 34.36014 132.69880 9411 ft 264 kts 236°
2026-05-07 16:19 34.34950 132.68057 10130 ft 267 kts 236°
2026-05-07 16:19 34.33842 132.66138 10398 ft 289 kts 237°
2026-05-07 16:19 34.32650 132.64066 10541 ft 312 kts 236°
2026-05-07 16:20 34.31370 132.61834 10656 ft 333 kts 236°
2026-05-07 16:20 34.30009 132.59454 10770 ft 353 kts 236°
2026-05-07 16:20 34.28572 132.56945 10966 ft 369 kts 236°
2026-05-07 16:20 34.27111 132.54401 11499 ft 375 kts 236°
2026-05-07 16:21 34.25614 132.51804 12158 ft 378 kts 236°
2026-05-07 16:21 34.24104 132.49186 12849 ft 380 kts 236°
2026-05-07 16:21 34.22597 132.46550 13533 ft 383 kts 238°
2026-05-07 16:21 34.21265 132.43734 14147 ft 385 kts 241°
2026-05-07 16:22 34.19977 132.40914 14504 ft 393 kts 241°
2026-05-07 16:22 34.18651 132.38011 14928 ft 398 kts 241°
2026-05-07 16:22 34.17301 132.35056 15434 ft 400 kts 241°
2026-05-07 16:22 34.15945 132.32097 15952 ft 403 kts 240°
2026-05-07 16:23 34.14598 132.29163 16453 ft 405 kts 240°
2026-05-07 16:23 34.13230 132.26179 16958 ft 407 kts 240°
2026-05-07 16:23 34.11853 132.23184 17448 ft 409 kts 240°
2026-05-07 16:23 34.10469 132.20178 17930 ft 411 kts 240°
2026-05-07 16:24 34.09076 132.17152 18397 ft 411 kts 240°
2026-05-07 16:24 34.07866 132.14060 18788 ft 415 kts 248°
2026-05-07 16:24 34.07055 132.10703 19194 ft 418 kts 253°
2026-05-07 16:24 34.06305 132.07299 19574 ft 421 kts 253°
2026-05-07 16:25 34.05546 132.03874 19950 ft 424 kts 253°
2026-05-07 16:25 34.04778 132.00430 20324 ft 427 kts 253°
2026-05-07 16:25 34.04007 131.96966 20713 ft 428 kts 253°
2026-05-07 16:25 34.03233 131.93493 21112 ft 430 kts 253°
2026-05-07 16:26 34.02452 131.90001 21462 ft 432 kts 253°
2026-05-07 16:26 34.01667 131.86490 21768 ft 435 kts 253°
2026-05-07 16:26 34.00886 131.83004 22114 ft 438 kts 253°
2026-05-07 16:26 34.00087 131.79446 22435 ft 441 kts 253°
2026-05-07 16:27 33.99282 131.75863 22752 ft 444 kts 253°
2026-05-07 16:27 33.98469 131.72245 23003 ft 447 kts 253°
2026-05-07 16:27 33.97652 131.68602 23238 ft 450 kts 253°
2026-05-07 16:27 33.96830 131.64953 23490 ft 452 kts 253°
2026-05-07 16:28 33.96009 131.61330 23706 ft 454 kts 253°
2026-05-07 16:28 33.95176 131.57658 23914 ft 455 kts 253°
2026-05-07 16:28 33.94338 131.53966 24114 ft 456 kts 253°
2026-05-07 16:28 33.93500 131.50282 24335 ft 456 kts 253°
2026-05-07 16:29 33.92667 131.46634 24526 ft 457 kts 253°
2026-05-07 16:29 33.91824 131.42938 24697 ft 458 kts 253°
2026-05-07 16:29 33.90981 131.39237 24867 ft 458 kts 253°
2026-05-07 16:29 33.90138 131.35533 25051 ft 458 kts 253°
2026-05-07 16:30 33.89294 131.31830 25295 ft 458 kts 253°
2026-05-07 16:30 33.88449 131.28133 25539 ft 457 kts 253°
2026-05-07 16:30 33.87603 131.24451 25769 ft 456 kts 253°
2026-05-07 16:30 33.86756 131.20780 26002 ft 455 kts 253°
2026-05-07 16:31 33.85921 131.17160 26241 ft 454 kts 253°
2026-05-07 16:31 33.85075 131.13500 26489 ft 454 kts 253°
2026-05-07 16:31 33.84232 131.09847 26742 ft 453 kts 253°
2026-05-07 16:31 33.83389 131.06199 26992 ft 452 kts 253°
2026-05-07 16:32 33.82546 131.02553 27257 ft 451 kts 253°
2026-05-07 16:32 33.81702 130.98910 27522 ft 450 kts 253°
2026-05-07 16:32 33.80872 130.95329 27789 ft 449 kts 253°
2026-05-07 16:32 33.80033 130.91713 27899 ft 448 kts 253°
2026-05-07 16:33 33.79197 130.88120 27922 ft 446 kts 253°
2026-05-07 16:33 33.78359 130.84530 27920 ft 445 kts 253°
2026-05-07 16:33 33.77523 130.80948 27925 ft 445 kts 253°
2026-05-07 16:33 33.76684 130.77363 27922 ft 445 kts 253°
2026-05-07 16:34 33.75846 130.73785 27923 ft 445 kts 253°
2026-05-07 16:34 33.75003 130.70200 27927 ft 446 kts 253°
2026-05-07 16:34 33.74158 130.66613 27935 ft 446 kts 253°
2026-05-07 16:34 33.73313 130.63028 27915 ft 446 kts 253°
2026-05-07 16:35 33.72467 130.59440 27929 ft 446 kts 253°
2026-05-07 16:35 33.71634 130.55898 27942 ft 447 kts 253°
2026-05-07 16:35 33.70571 130.52397 27952 ft 447 kts 244°
2026-05-07 16:35 33.68980 130.49194 27957 ft 448 kts 234°
2026-05-07 16:36 33.66903 130.46399 27969 ft 450 kts 225°
2026-05-07 16:36 33.64419 130.44064 27968 ft 454 kts 218°
2026-05-07 16:36 33.61832 130.41882 27967 ft 454 kts 218°
2026-05-07 16:36 33.59267 130.39724 27967 ft 454 kts 218°
2026-05-07 16:37 33.56681 130.37546 27968 ft 454 kts 218°
2026-05-07 16:37 33.54094 130.35370 27968 ft 454 kts 218°
2026-05-07 16:37 33.51501 130.33193 27967 ft 454 kts 218°
2026-05-07 16:37 33.48905 130.31016 27960 ft 454 kts 218°
2026-05-07 16:38 33.46309 130.28841 27954 ft 454 kts 218°
2026-05-07 16:38 33.43751 130.26700 27952 ft 454 kts 218°
2026-05-07 16:38 33.41126 130.24504 27967 ft 454 kts 218°
2026-05-07 16:38 33.38570 130.22364 27964 ft 455 kts 218°
2026-05-07 16:39 33.35969 130.20207 27963 ft 456 kts 216°
2026-05-07 16:39 33.33112 130.18498 27961 ft 463 kts 204°
2026-05-07 16:39 33.29946 130.17621 27938 ft 473 kts 191°
2026-05-07 16:39 33.26649 130.17369 27945 ft 476 kts 188°
2026-05-07 16:40 33.23344 130.17161 27950 ft 476 kts 188°
2026-05-07 16:40 33.20035 130.16961 27953 ft 476 kts 188°
2026-05-07 16:40 33.16728 130.16763 27957 ft 476 kts 188°
2026-05-07 16:40 33.13410 130.16563 27960 ft 476 kts 188°
2026-05-07 16:41 33.10095 130.16358 27943 ft 476 kts 188°
2026-05-07 16:41 33.06832 130.16150 27952 ft 476 kts 188°
2026-05-07 16:41 33.03518 130.15936 27967 ft 475 kts 188°
2026-05-07 16:41 33.00212 130.15722 27966 ft 475 kts 188°
2026-05-07 16:42 32.96901 130.15506 27972 ft 475 kts 188°
2026-05-07 16:42 32.93598 130.15293 27975 ft 475 kts 188°
2026-05-07 16:42 32.90296 130.15082 27953 ft 475 kts 188°
2026-05-07 16:42 32.87033 130.14876 27954 ft 475 kts 188°
2026-05-07 16:43 32.83726 130.14669 27956 ft 475 kts 189°
2026-05-07 16:43 32.80513 130.14026 27955 ft 462 kts 204°
2026-05-07 16:43 32.77756 130.12201 27962 ft 450 kts 223°
2026-05-07 16:43 32.75770 130.09379 27965 ft 444 kts 242°
2026-05-07 16:44 32.74794 130.05927 27960 ft 444 kts 262°
2026-05-07 16:44 32.74942 130.02247 27963 ft 451 kts 281°
2026-05-07 16:44 32.76190 129.98853 27965 ft 462 kts 300°
2026-05-07 16:44 32.78443 129.96063 27970 ft 478 kts 319°
2026-05-07 16:45 32.81407 129.94154 27963 ft 489 kts 329°
2026-05-07 16:45 32.84505 129.92467 27962 ft 490 kts 329°
2026-05-07 16:45 32.87604 129.90781 27962 ft 490 kts 329°
2026-05-07 16:45 32.90687 129.89055 27956 ft 486 kts 325°
2026-05-07 16:46 32.93315 129.86656 27965 ft 470 kts 308°
2026-05-07 16:46 32.95501 129.83769 27959 ft 469 kts 306°
2026-05-07 16:46 32.97679 129.80866 27964 ft 470 kts 306°
2026-05-07 16:46 32.99862 129.77968 27961 ft 471 kts 308°
2026-05-07 16:47 33.02411 129.75541 27955 ft 485 kts 325°
2026-05-07 16:47 33.05640 129.74171 27958 ft 503 kts 345°
2026-05-07 16:47 33.09194 129.74103 27961 ft 519 kts
2026-05-07 16:47 33.12675 129.75395 27952 ft 532 kts 23°
2026-05-07 16:48 33.15732 129.77957 27958 ft 542 kts 42°
2026-05-07 16:48 33.18032 129.81532 27937 ft 548 kts 61°
2026-05-07 16:48 33.19336 129.85736 27960 ft 546 kts 79°
2026-05-07 16:48 33.19541 129.90156 27951 ft 520 kts 99°
2026-05-07 16:49 33.18639 129.94193 27957 ft 489 kts 120°
2026-05-07 16:49 33.16808 129.97432 27953 ft 454 kts 142°
2026-05-07 16:49 33.14361 129.99554 27955 ft 419 kts 160°
2026-05-07 16:49 33.11849 130.01212 27892 ft 410 kts 155°
2026-05-07 16:50 33.09505 130.03027 27760 ft 401 kts 154°
2026-05-07 16:50 33.07217 130.04864 27616 ft 393 kts 150°
2026-05-07 16:50 33.05243 130.07134 26859 ft 401 kts 132°
2026-05-07 16:50 33.03892 130.10122 25429 ft 424 kts 110°
2026-05-07 16:51 33.03337 130.13662 23835 ft 443 kts 101°
2026-05-07 16:51 33.02555 130.17230 22126 ft 444 kts 121°
2026-05-07 16:51 33.00815 130.20168 20585 ft 428 kts 144°
2026-05-07 16:51 32.98386 130.22053 19079 ft 409 kts 167°
2026-05-07 16:52 32.95671 130.22647 17484 ft 389 kts 189°
2026-05-07 16:52 32.93114 130.21913 15814 ft 374 kts 211°
2026-05-07 16:52 32.91000 130.20225 14263 ft 369 kts 218°
2026-05-07 16:52 32.88796 130.18637 12601 ft 372 kts 210°
2026-05-07 16:53 32.86438 130.17359 10974 ft 372 kts 206°
2026-05-07 16:53 32.84042 130.16223 9396 ft 369 kts 205°
2026-05-07 16:53 32.81673 130.15108 7838 ft 362 kts 205°
2026-05-07 16:53 32.79572 130.13588 6414 ft 347 kts 224°
2026-05-07 16:54 32.78144 130.11345 4947 ft 339 kts 245°
2026-05-07 16:54 32.77709 130.08671 3539 ft 335 kts 271°
2026-05-07 16:54 32.78167 130.06025 2658 ft 319 kts 293°
2026-05-07 16:54 32.79497 130.04065 2307 ft 293 kts 317°
2026-05-07 16:55 32.81029 130.02650 2141 ft 263 kts 318°
2026-05-07 16:55 32.82336 130.01339 2034 ft 235 kts 315°
2026-05-07 16:55 32.83481 130.00118 1938 ft 209 kts 315°
2026-05-07 16:55 32.84500 129.99027 1675 ft 186 kts 315°
2026-05-07 16:56 32.85387 129.98082 1444 ft 159 kts 315°
2026-05-07 16:56 32.86175 129.97242 1221 ft 149 kts 315°
2026-05-07 16:56 32.87683 129.95630 809 ft 143 kts 316°
2026-05-07 16:57 32.88395 129.94847 619 ft 143 kts 316°
2026-05-07 16:57 32.89134 129.94074 458 ft 141 kts 317°
2026-05-07 16:57 32.89862 129.93287 242 ft 140 kts 316°
2026-05-07 16:57 32.90592 129.92526 59 ft 138 kts 318°
2026-05-07 16:58 32.91261 129.91815 20 ft 117 kts 318°
2026-05-07 16:58 32.91700 129.91341 16 ft 43 kts 318°
2026-05-07 16:58 32.91885 129.91143 17 ft 30 kts 318°
2026-05-07 16:58 32.92021 129.91187 16 ft 18 kts 53°
2026-05-07 16:59 32.92009 129.91300 17 ft 18 kts 121°
2026-05-07 16:59 32.91894 129.91412 19 ft 26 kts 142°
2026-05-07 16:59 32.91745 129.91574 19 ft 30 kts 137°
2026-05-07 16:59 32.91588 129.91735 18 ft 26 kts 138°
2026-05-07 17:00 32.91449 129.91884 19 ft 27 kts 138°
2026-05-07 17:00 32.91301 129.92039 18 ft 29 kts 139°
2026-05-07 17:00 32.91217 129.92158 19 ft 7 kts 63°
2026-05-07 17:00 32.91246 129.92203 20 ft 7 kts 48°
2026-05-07 17:01 32.91280 129.92248 22 ft 8 kts 48°
2026-05-07 17:01 32.91296 129.92268 19 ft 0 kts 48°